createdAt,value
2019-04-11T00:02:18.571Z,13.03
2019-04-11T00:04:48.610Z,13.03
2019-04-11T00:07:18.635Z,13.05
2019-04-11T00:09:49.293Z,13.00
2019-04-11T00:12:19.638Z,12.92
2019-04-11T00:14:49.681Z,13.02
2019-04-11T00:17:19.817Z,13.10
2019-04-11T00:19:49.851Z,13.09
2019-04-11T00:22:21.482Z,13.08
2019-04-11T00:24:51.567Z,13.07
2019-04-11T00:27:21.718Z,13.02
2019-04-11T00:29:51.631Z,12.94
2019-04-11T00:32:21.874Z,12.98
2019-04-11T00:34:53.314Z,12.92
2019-04-11T00:37:23.484Z,12.94
2019-04-11T00:39:54.134Z,12.80
2019-04-11T00:42:23.379Z,12.83
2019-04-11T00:44:53.283Z,12.91
2019-04-11T00:47:23.331Z,12.92
2019-04-11T00:49:53.358Z,13.01
2019-04-11T00:52:25.375Z,12.97
2019-04-11T00:54:55.565Z,12.99
2019-04-11T00:57:25.727Z,12.90
2019-04-11T00:59:56.505Z,12.97
2019-04-11T01:02:26.717Z,12.93
2019-04-11T01:04:57.106Z,12.82
2019-04-11T01:07:29.105Z,12.72
2019-04-11T01:09:59.184Z,12.64
2019-04-11T01:12:29.222Z,12.51
2019-04-11T01:14:59.445Z,12.52
2019-04-11T01:17:29.607Z,12.54
2019-04-11T01:19:59.735Z,12.37
2019-04-11T01:22:29.908Z,12.35
2019-04-11T01:24:59.942Z,12.38
2019-04-11T01:27:30.665Z,12.26
2019-04-11T01:30:00.606Z,12.26
2019-04-11T01:32:30.646Z,12.21
2019-04-11T01:35:01.297Z,12.12
2019-04-11T01:37:31.454Z,12.05
2019-04-11T01:40:02.428Z,12.03
2019-04-11T01:42:33.471Z,12.03
2019-04-11T01:45:03.886Z,12.08
2019-04-11T01:47:37.386Z,12.11
2019-04-11T01:50:08.428Z,12.20
2019-04-11T01:52:38.613Z,12.16
2019-04-11T01:55:08.648Z,12.10
2019-04-11T01:57:38.687Z,12.07
2019-04-11T02:00:12.223Z,12.04
2019-04-11T02:02:44.406Z,12.03
2019-04-11T02:05:16.727Z,12.08
2019-04-11T02:07:46.982Z,12.19
2019-04-11T02:10:17.039Z,12.24
2019-04-11T02:12:47.688Z,12.29
2019-04-11T02:15:17.735Z,12.30
2019-04-11T02:17:48.779Z,12.29
2019-04-11T02:20:18.935Z,12.29
2019-04-11T02:22:50.815Z,12.29
2019-04-11T02:25:28.731Z,12.32
2019-04-11T02:28:00.610Z,12.30
2019-04-11T02:30:31.352Z,12.25
2019-04-11T02:33:01.474Z,12.24
2019-04-11T02:35:31.727Z,12.24
2019-04-11T02:38:02.961Z,12.21
2019-04-11T02:40:33.247Z,12.19
2019-04-11T02:43:05.010Z,12.28
2019-04-11T02:45:45.396Z,12.29
2019-04-11T02:48:09.331Z,12.28
2019-04-11T02:50:40.655Z,12.26
2019-04-11T02:53:12.426Z,12.27
2019-04-11T02:55:43.806Z,12.26
2019-04-11T02:58:15.326Z,12.22
2019-04-11T03:00:45.656Z,12.18
2019-04-11T03:03:15.402Z,12.18
2019-04-11T03:05:47.056Z,12.20
2019-04-11T03:08:19.795Z,12.20
2019-04-11T03:10:49.335Z,12.10
2019-04-11T03:13:21.105Z,12.14
2019-04-11T03:16:07.499Z,12.15
2019-04-11T03:18:40.711Z,12.15
2019-04-11T03:21:00.154Z,12.18
2019-04-11T03:23:27.849Z,12.16
2019-04-11T03:25:58.321Z,12.16
2019-04-11T03:28:31.386Z,12.17
2019-04-11T03:31:32.663Z,12.22
2019-04-11T03:37:00.689Z,12.26
2019-04-11T03:38:55.477Z,12.27
2019-04-11T03:41:23.514Z,12.29
2019-04-11T03:43:51.086Z,12.33
2019-04-11T03:46:30.851Z,12.32
2019-04-11T03:48:57.755Z,12.37
2019-04-11T03:51:17.973Z,12.38
2019-04-11T03:53:47.272Z,12.40
2019-04-11T03:56:19.926Z,12.30
2019-04-11T03:58:50.323Z,12.33
2019-04-11T04:01:22.640Z,12.30
2019-04-11T04:03:53.979Z,12.26
2019-04-11T04:06:25.525Z,12.30
2019-04-11T04:08:55.911Z,12.34
2019-04-11T04:11:27.510Z,12.41
2019-04-11T04:14:17.150Z,12.48
2019-04-11T04:16:54.860Z,12.50
2019-04-11T04:19:35.360Z,12.45
2019-04-11T04:22:14.187Z,12.51
2019-04-11T04:24:47.495Z,12.54
2019-04-11T04:27:19.848Z,12.62
2019-04-11T04:29:54.903Z,12.59
2019-04-11T04:32:23.038Z,12.54
2019-04-11T04:34:53.350Z,12.60
2019-04-11T04:37:24.840Z,12.68
2019-04-11T04:40:13.531Z,12.74
2019-04-11T04:42:35.911Z,12.75
2019-04-11T04:45:02.513Z,12.84
2019-04-11T04:47:42.668Z,12.97
2019-04-11T04:50:08.595Z,13.00
2019-04-11T04:52:38.924Z,13.07
2019-04-11T04:55:10.579Z,13.04
2019-04-11T04:57:42.888Z,13.07
2019-04-11T05:00:14.918Z,13.18
2019-04-11T05:02:47.903Z,13.34
2019-04-11T05:05:19.619Z,13.50
2019-04-11T05:07:49.937Z,13.65
2019-04-11T05:10:20.104Z,13.74
2019-04-11T05:12:51.428Z,13.68
2019-04-11T05:15:21.534Z,13.67
2019-04-11T05:17:51.473Z,13.82
2019-04-11T05:20:21.885Z,13.93
2019-04-11T05:22:51.359Z,14.14
2019-04-11T05:25:22.255Z,14.50
2019-04-11T05:27:52.438Z,14.70
2019-04-11T05:30:23.123Z,14.92
2019-04-11T05:32:53.496Z,14.92
2019-04-11T05:35:23.457Z,14.73
2019-04-11T05:37:53.614Z,14.61
2019-04-11T05:40:24.016Z,14.60
2019-04-11T05:42:54.636Z,14.76
2019-04-11T05:45:26.466Z,14.72
2019-04-11T05:47:58.456Z,14.63
2019-04-11T05:50:32.046Z,14.55
2019-04-11T05:53:03.702Z,14.55
2019-04-11T05:55:36.361Z,14.41
2019-04-11T05:58:11.405Z,14.41
2019-04-11T06:00:46.744Z,14.57
2019-04-11T06:03:17.684Z,14.83
2019-04-11T06:05:49.915Z,15.13
2019-04-11T06:08:26.819Z,15.44
2019-04-11T06:11:14.574Z,15.84
2019-04-11T06:13:56.811Z,16.25
2019-04-11T06:16:38.911Z,16.28
2019-04-11T06:19:04.056Z,16.36
2019-04-11T06:21:36.003Z,16.60
2019-04-11T06:24:14.173Z,16.96
2019-04-11T06:26:46.966Z,17.73
2019-04-11T06:29:26.088Z,18.28
2019-04-11T06:32:11.768Z,18.12
2019-04-11T06:34:43.827Z,18.03
2019-04-11T06:37:19.295Z,17.04
2019-04-11T06:39:58.282Z,16.69
2019-04-11T06:42:30.267Z,16.37
2019-04-11T06:45:18.282Z,15.85
2019-04-11T06:48:02.068Z,16.11
2019-04-11T06:50:37.527Z,16.07
2019-04-11T06:53:08.877Z,15.96
2019-04-11T06:55:57.228Z,16.58
2019-04-11T06:58:29.758Z,16.71
2019-04-11T07:01:01.438Z,16.58
2019-04-11T07:03:34.095Z,16.55
2019-04-11T07:06:05.563Z,16.66
2019-04-11T07:08:40.603Z,17.56
2019-04-11T07:11:12.229Z,18.39
2019-04-11T07:13:43.792Z,18.09
2019-04-11T07:16:15.254Z,18.06
2019-04-11T07:18:47.015Z,17.25
2019-04-11T07:21:17.128Z,17.18
2019-04-11T07:24:05.428Z,17.38
2019-04-11T07:26:37.377Z,17.40
2019-04-11T07:29:24.149Z,17.16
2019-04-11T07:31:57.024Z,17.53
2019-04-11T07:34:45.747Z,18.38
2019-04-11T07:37:32.677Z,18.27
2019-04-11T07:40:13.454Z,18.15
2019-04-11T07:42:44.229Z,19.10
2019-04-11T07:45:21.619Z,18.19
2019-04-11T07:47:53.174Z,17.80
2019-04-11T07:50:24.914Z,17.98
2019-04-11T07:53:06.747Z,17.83
2019-04-11T07:55:38.672Z,17.71
2019-04-11T07:58:21.938Z,17.40
2019-04-11T08:01:10.375Z,17.57
2019-04-11T08:03:54.250Z,18.29
2019-04-11T08:06:42.898Z,18.99
2019-04-11T08:09:15.314Z,19.54
2019-04-11T08:11:50.031Z,19.40
2019-04-11T08:14:21.531Z,19.85
2019-04-11T08:17:03.670Z,20.03
2019-04-11T08:19:44.373Z,19.75
2019-04-11T08:22:16.926Z,19.75
2019-04-11T08:25:00.902Z,19.68
2019-04-11T08:27:33.514Z,21.07
2019-04-11T08:30:06.392Z,21.36
2019-04-11T08:32:56.616Z,20.54
2019-04-11T08:35:34.920Z,20.92
2019-04-11T08:38:12.419Z,22.19
2019-04-11T08:40:53.359Z,22.90
2019-04-11T08:43:28.915Z,22.70
2019-04-11T08:46:00.841Z,21.68
2019-04-11T08:48:33.035Z,23.46
2019-04-11T08:51:09.791Z,24.80
2019-04-11T08:53:44.862Z,24.84
2019-04-11T08:56:16.768Z,24.12
2019-04-11T08:59:33.636Z,25.01
2019-04-11T09:02:04.670Z,24.90
2019-04-11T09:05:03.258Z,26.40
2019-04-11T09:07:25.418Z,26.67
2019-04-11T09:10:07.425Z,25.78
2019-04-11T09:12:39.400Z,26.77
2019-04-11T09:15:26.662Z,27.32
2019-04-11T09:18:04.204Z,28.23
2019-04-11T09:20:34.071Z,27.44
2019-04-11T09:23:04.089Z,26.41
2019-04-11T09:25:45.524Z,24.57
2019-04-11T09:28:18.181Z,26.79
2019-04-11T09:30:56.981Z,28.54
2019-04-11T09:33:47.007Z,29.44
2019-04-11T09:36:33.901Z,27.01
2019-04-11T09:39:12.931Z,28.70
2019-04-11T09:42:00.976Z,28.33
2019-04-11T09:44:32.919Z,30.56
2019-04-11T09:47:13.718Z,30.08
2019-04-11T09:49:48.451Z,28.75
2019-04-11T09:52:26.985Z,27.61
2019-04-11T09:55:01.337Z,26.75
2019-04-11T09:57:34.656Z,27.35
2019-04-11T10:00:08.468Z,27.89
2019-04-11T10:02:58.862Z,35.99
2019-04-11T10:05:34.103Z,35.99
2019-04-11T10:08:12.765Z,35.87
2019-04-11T10:10:47.386Z,35.38
2019-04-11T10:13:28.919Z,32.65
2019-04-11T10:16:17.975Z,32.18
2019-04-11T10:18:53.600Z,33.18
2019-04-11T10:21:25.951Z,32.87
2019-04-11T10:24:16.631Z,32.20
2019-04-11T10:27:06.750Z,32.20
2019-04-11T10:29:41.811Z,30.44
2019-04-11T10:32:13.589Z,29.86
2019-04-11T10:34:52.210Z,36.21
2019-04-11T10:37:23.475Z,34.54
2019-04-11T10:39:54.512Z,36.36
2019-04-11T10:42:26.315Z,40.90
2019-04-11T10:45:14.383Z,42.40
2019-04-11T10:47:47.047Z,39.27
2019-04-11T10:50:21.990Z,40.12
2019-04-11T10:53:00.521Z,40.12
2019-04-11T10:55:32.294Z,39.48
2019-04-11T10:58:06.833Z,42.27
2019-04-11T11:00:41.476Z,38.53
2019-04-11T11:03:15.886Z,32.94
2019-04-11T11:05:47.471Z,40.16
2019-04-11T11:08:29.118Z,39.14
2019-04-11T11:11:00.743Z,40.20
2019-04-11T11:13:48.483Z,40.20
2019-04-11T11:16:20.270Z,41.03
2019-04-11T11:19:31.201Z,42.59
2019-04-11T11:21:39.914Z,41.44
2019-04-11T11:24:28.292Z,42.61
2019-04-11T11:27:02.546Z,36.00
2019-04-11T11:29:32.004Z,38.36
2019-04-11T11:32:05.022Z,41.55
2019-04-11T11:34:40.988Z,40.55
2019-04-11T11:37:29.021Z,41.72
2019-04-11T11:40:14.572Z,43.23
2019-04-11T11:42:47.451Z,36.93
2019-04-11T11:45:19.551Z,37.78
2019-04-11T11:47:55.307Z,40.19
2019-04-11T11:50:26.743Z,38.79
2019-04-11T11:53:04.816Z,38.72
2019-04-11T11:55:41.265Z,39.72
2019-04-11T11:58:29.939Z,37.35
2019-04-11T12:01:05.826Z,41.88
2019-04-11T12:03:46.782Z,40.62
2019-04-11T12:06:22.284Z,41.26
2019-04-11T12:08:51.571Z,42.32
2019-04-11T12:11:22.700Z,41.52
2019-04-11T12:14:00.399Z,43.25
2019-04-11T12:16:33.053Z,45.42
2019-04-11T12:19:22.167Z,43.96
2019-04-11T12:21:55.782Z,44.75
2019-04-11T12:24:29.161Z,35.36
2019-04-11T12:27:18.638Z,34.87
2019-04-11T12:30:08.682Z,34.10
2019-04-11T12:32:46.639Z,27.27
2019-04-11T12:35:36.038Z,24.43
2019-04-11T12:38:24.700Z,24.23
2019-04-11T12:41:14.993Z,38.13
2019-04-11T12:44:04.840Z,41.12
2019-04-11T12:46:52.786Z,40.62
2019-04-11T12:49:27.112Z,44.85
2019-04-11T12:52:15.117Z,42.80
2019-04-11T12:54:46.719Z,41.05
2019-04-11T12:57:34.867Z,41.77
2019-04-11T13:00:20.748Z,32.48
2019-04-11T13:03:01.319Z,25.83
2019-04-11T13:05:33.599Z,24.76
2019-04-11T13:08:21.753Z,31.28
2019-04-11T13:10:51.793Z,34.00
2019-04-11T13:13:29.498Z,39.76
2019-04-11T13:16:12.471Z,39.09
2019-04-11T13:18:46.546Z,35.68
2019-04-11T13:21:27.217Z,36.35
2019-04-11T13:23:58.789Z,36.94
2019-04-11T13:26:36.589Z,36.17
2019-04-11T13:29:29.251Z,30.37
2019-04-11T13:32:07.156Z,34.18
2019-04-11T13:34:38.832Z,32.99
2019-04-11T13:37:16.443Z,29.92
2019-04-11T13:39:48.002Z,25.42
2019-04-11T13:42:22.636Z,25.48
2019-04-11T13:44:52.674Z,28.30
2019-04-11T13:47:40.711Z,30.18
2019-04-11T13:50:16.759Z,30.36
2019-04-11T13:53:00.424Z,30.95
2019-04-11T13:55:30.770Z,32.81
2019-04-11T13:58:02.339Z,33.77
2019-04-11T14:00:39.741Z,33.04
2019-04-11T14:03:26.639Z,30.58
2019-04-11T14:05:58.255Z,29.50
2019-04-11T14:08:41.871Z,28.75
2019-04-11T14:11:19.677Z,29.46
2019-04-11T14:13:49.455Z,29.90
2019-04-11T14:16:23.641Z,28.44
2019-04-11T14:19:12.416Z,27.86
2019-04-11T14:21:44.265Z,27.77
2019-04-11T14:24:24.845Z,27.59
2019-04-11T14:27:02.539Z,27.27
2019-04-11T14:29:34.126Z,28.05
2019-04-11T14:32:14.652Z,28.22
2019-04-11T14:35:04.769Z,28.03
2019-04-11T14:37:38.417Z,28.03
2019-04-11T14:40:26.004Z,28.01
2019-04-11T14:43:16.157Z,27.96
2019-04-11T14:45:53.090Z,25.89
2019-04-11T14:48:42.655Z,25.89
2019-04-11T14:51:26.200Z,25.98
2019-04-11T14:54:11.794Z,25.72
2019-04-11T14:56:47.978Z,25.32
2019-04-11T14:59:35.907Z,26.61
2019-04-11T15:02:07.574Z,26.58
2019-04-11T15:04:39.121Z,26.28
2019-04-11T15:07:10.037Z,26.39
2019-04-11T15:09:46.484Z,26.69
2019-04-11T15:12:20.593Z,26.33
2019-04-11T15:14:52.164Z,26.85
2019-04-11T15:17:33.047Z,26.56
2019-04-11T15:20:07.490Z,25.62
2019-04-11T15:22:45.087Z,24.36
2019-04-11T15:25:19.521Z,23.82
2019-04-11T15:28:03.173Z,22.86
2019-04-11T15:30:53.043Z,22.13
2019-04-11T15:33:40.873Z,21.59
2019-04-11T15:36:12.449Z,20.92
2019-04-11T15:39:00.185Z,20.63
2019-04-11T15:41:31.846Z,20.35
2019-04-11T15:44:21.618Z,20.08
2019-04-11T15:46:51.550Z,19.88
2019-04-11T15:49:30.213Z,19.71
2019-04-11T15:51:56.440Z,19.56
2019-04-11T15:54:44.487Z,19.43
2019-04-11T15:57:16.148Z,19.30
2019-04-11T15:59:47.713Z,19.12
2019-04-11T16:02:37.797Z,18.99
2019-04-11T16:05:31.465Z,18.79
2019-04-11T16:08:19.419Z,18.58
2019-04-11T16:10:54.174Z,18.48
2019-04-11T16:13:25.843Z,18.33
2019-04-11T16:16:05.220Z,18.14
2019-04-11T16:18:47.128Z,18.03
2019-04-11T16:21:24.263Z,18.06
2019-04-11T16:23:56.969Z,17.83
2019-04-11T16:26:43.865Z,17.70
2019-04-11T16:29:18.203Z,17.49
2019-04-11T16:31:48.125Z,17.26
2019-04-11T16:34:31.669Z,17.07
2019-04-11T16:37:01.601Z,16.82
2019-04-11T16:39:54.854Z,16.53
2019-04-11T16:42:24.818Z,16.40
2019-04-11T16:45:12.418Z,16.20
2019-04-11T16:47:43.956Z,16.02
2019-04-11T16:50:14.109Z,15.86
2019-04-11T16:52:44.072Z,15.68
2019-04-11T16:55:14.218Z,15.53
2019-04-11T16:57:45.493Z,15.41
2019-04-11T17:00:20.259Z,15.36
2019-04-11T17:02:47.387Z,15.33
2019-04-11T17:05:17.501Z,15.23
2019-04-11T17:08:01.063Z,15.06
2019-04-11T17:10:49.541Z,14.84
2019-04-11T17:13:19.548Z,14.77
2019-04-11T17:15:49.591Z,14.69
2019-04-11T17:18:19.637Z,14.54
2019-04-11T17:20:49.790Z,14.42
2019-04-11T17:23:19.896Z,14.31
2019-04-11T17:25:53.097Z,14.29
2019-04-11T17:28:23.121Z,14.38
2019-04-11T17:30:55.701Z,14.36
2019-04-11T17:33:27.754Z,14.32
2019-04-11T17:35:56.831Z,14.30
2019-04-11T17:38:26.988Z,14.32
2019-04-11T17:40:56.974Z,14.27
2019-04-11T17:43:27.255Z,14.21
2019-04-11T17:45:57.734Z,14.13
2019-04-11T17:48:27.076Z,13.95
2019-04-11T17:50:57.184Z,13.82
2019-04-11T17:53:27.206Z,13.74
2019-04-11T17:55:57.371Z,13.52
2019-04-11T17:58:27.907Z,13.52
2019-04-11T18:01:00.539Z,13.43
2019-04-11T18:03:30.926Z,13.35
2019-04-11T18:06:01.242Z,13.51
2019-04-11T18:08:32.226Z,13.45
2019-04-11T18:11:03.697Z,13.35
2019-04-11T18:13:39.566Z,13.40
2019-04-11T18:16:09.903Z,13.48
2019-04-11T18:18:40.146Z,13.54
2019-04-11T18:21:10.291Z,13.70
2019-04-11T18:23:42.498Z,13.83
2019-04-11T18:26:12.446Z,13.76
2019-04-11T18:28:43.968Z,13.76
2019-04-11T18:31:13.915Z,13.84
2019-04-11T18:33:43.945Z,13.85
2019-04-11T18:36:13.926Z,13.96
2019-04-11T18:38:44.586Z,13.94
2019-04-11T18:41:14.990Z,14.11
2019-04-11T18:43:47.106Z,14.18
2019-04-11T18:46:17.194Z,14.16
2019-04-11T18:48:47.445Z,14.16
2019-04-11T18:51:17.505Z,14.24
2019-04-11T18:53:47.512Z,14.21
2019-04-11T18:56:17.553Z,14.25
2019-04-11T18:58:47.689Z,14.32
2019-04-11T19:01:19.686Z,14.37
2019-04-11T19:03:49.724Z,14.34
2019-04-11T19:06:27.764Z,14.18
2019-04-11T19:08:51.544Z,13.91
2019-04-11T19:11:21.655Z,13.63
2019-04-11T19:13:51.709Z,13.49
2019-04-11T19:16:21.742Z,13.57
2019-04-11T19:18:51.773Z,13.83
2019-04-11T19:21:22.234Z,13.82
2019-04-11T19:23:52.252Z,13.81
2019-04-11T19:26:22.925Z,13.52
2019-04-11T19:28:55.206Z,13.26
2019-04-11T19:31:28.443Z,13.20
2019-04-11T19:34:04.314Z,13.02
2019-04-11T19:36:32.354Z,12.69
2019-04-11T19:39:02.300Z,12.51
2019-04-11T19:41:34.067Z,12.49
2019-04-11T19:44:04.824Z,12.30
2019-04-11T19:46:35.481Z,12.27
2019-04-11T19:49:04.834Z,12.23
2019-04-11T19:51:34.728Z,12.23
2019-04-11T19:54:04.773Z,12.21
2019-04-11T19:56:42.370Z,12.07
2019-04-11T19:59:12.408Z,12.06
2019-04-11T20:01:42.443Z,12.04
2019-04-11T20:04:12.479Z,12.23
2019-04-11T20:06:43.197Z,12.16
2019-04-11T20:09:13.379Z,12.06
2019-04-11T20:11:44.870Z,11.85
2019-04-11T20:14:15.088Z,11.76
2019-04-11T20:16:48.883Z,11.66
2019-04-11T20:19:18.038Z,11.58
2019-04-11T20:21:48.018Z,11.55
2019-04-11T20:24:18.313Z,11.50
2019-04-11T20:26:50.293Z,11.40
2019-04-11T20:29:21.435Z,11.45
2019-04-11T20:31:51.585Z,11.22
2019-04-11T20:34:27.633Z,11.23
2019-04-11T20:36:54.832Z,11.35
2019-04-11T20:39:24.875Z,11.39
2019-04-11T20:41:56.333Z,11.37
2019-04-11T20:44:28.096Z,11.22
2019-04-11T20:47:00.488Z,11.10
2019-04-11T20:49:30.020Z,11.07
2019-04-11T20:52:00.001Z,11.01
2019-04-11T20:54:30.511Z,11.04
2019-04-11T20:57:00.439Z,11.20
2019-04-11T20:59:34.884Z,11.20
2019-04-11T21:02:02.063Z,11.25
2019-04-11T21:04:32.043Z,11.44
2019-04-11T21:07:02.659Z,11.60
2019-04-11T21:09:33.219Z,11.52
2019-04-11T21:12:04.971Z,11.36
2019-04-11T21:14:35.008Z,11.26
2019-04-11T21:17:05.038Z,11.12
2019-04-11T21:19:35.071Z,11.03
2019-04-11T21:22:05.003Z,10.94
2019-04-11T21:24:35.043Z,10.88
2019-04-11T21:27:05.294Z,10.76
2019-04-11T21:29:35.325Z,10.60
2019-04-11T21:32:05.975Z,10.62
2019-04-11T21:34:35.218Z,10.71
2019-04-11T21:37:05.330Z,10.66
2019-04-11T21:39:35.270Z,10.57
2019-04-11T21:42:06.127Z,10.73
2019-04-11T21:44:36.911Z,11.31
2019-04-11T21:47:07.358Z,11.75
2019-04-11T21:49:37.969Z,11.69
2019-04-11T21:52:12.048Z,11.74
2019-04-11T21:54:39.786Z,11.45
2019-04-11T21:57:09.833Z,11.25
2019-04-11T21:59:40.063Z,11.14
2019-04-11T22:02:12.403Z,11.06
2019-04-11T22:04:43.493Z,11.31
2019-04-11T22:07:14.582Z,11.29
2019-04-11T22:09:44.607Z,11.21
2019-04-11T22:12:14.649Z,11.23
2019-04-11T22:14:44.687Z,11.37
2019-04-11T22:17:15.836Z,11.26
2019-04-11T22:19:46.562Z,11.10
2019-04-11T22:22:16.634Z,11.13
2019-04-11T22:24:46.596Z,11.18
2019-04-11T22:27:16.609Z,11.28
2019-04-11T22:29:46.526Z,11.25
2019-04-11T22:32:16.685Z,11.09
2019-04-11T22:34:47.330Z,10.82
2019-04-11T22:37:16.572Z,10.58
2019-04-11T22:39:46.492Z,10.41
2019-04-11T22:42:16.654Z,10.30
2019-04-11T22:44:48.190Z,10.30
2019-04-11T22:47:18.089Z,10.33
2019-04-11T22:49:48.062Z,10.43
2019-04-11T22:52:19.225Z,10.45
2019-04-11T22:54:49.257Z,10.29
2019-04-11T22:57:19.312Z,10.11
2019-04-11T22:59:49.330Z,10.25
2019-04-11T23:02:26.846Z,10.48
2019-04-11T23:04:56.768Z,10.52
2019-04-11T23:07:26.697Z,10.24
2019-04-11T23:09:56.743Z,10.48
2019-04-11T23:12:26.776Z,10.57
2019-04-11T23:14:57.743Z,10.38
2019-04-11T23:17:27.669Z,10.48
2019-04-11T23:19:57.602Z,10.55
2019-04-11T23:22:27.645Z,10.53
2019-04-11T23:24:57.468Z,10.49
2019-04-11T23:27:27.427Z,10.36
2019-04-11T23:29:57.361Z,10.23
2019-04-11T23:32:27.375Z,10.39
2019-04-11T23:34:57.313Z,10.39
2019-04-11T23:37:27.258Z,10.45
2019-04-11T23:39:57.236Z,10.43
2019-04-11T23:42:28.342Z,10.30
2019-04-11T23:44:58.385Z,10.24
2019-04-11T23:47:28.321Z,10.03
2019-04-11T23:49:58.355Z,9.91
2019-04-11T23:52:28.409Z,10.01
2019-04-11T23:55:00.570Z,9.81
2019-04-11T23:57:31.278Z,9.77
